Time;durP1;ratioP1;P1;durP2;ratioP2;P2;SDS_P1;SDS_P2;PMS_P1;PMS_P2;Temp;Humidity;BMP_temperature;BMP_pressure;BME280_temperature;BME280_humidity;BME280_pressure;Samples;Min_cycle;Max_cycle;Signal;HPM_P1;HPM_P2
2021/07/12 00:02:26;;;;;;;31.13;27.92;;;;;;;;;;5093182;28;20051;-66
2021/07/12 00:05:13;;;;;;;36.55;30.75;;;;;;;;;;5091773;28;20051;-65
2021/07/12 00:07:58;;;;;;;28.80;25.92;;;;;;;;;;5052776;28;20045;-65
2021/07/12 00:10:44;;;;;;;34.30;29.92;;;;;;;;;;5052611;28;20053;-65
2021/07/12 00:13:29;;;;;;;34.67;30.95;;;;;;;;;;5071177;28;20067;-65
2021/07/12 00:16:14;;;;;;;32.78;29.02;;;;;;;;;;5089749;28;20421;-65
2021/07/12 00:19:00;;;;;;;35.25;29.27;;;;;;;;;;5083862;28;20036;-65
2021/07/12 00:21:46;;;;;;;37.53;33.28;;;;;;;;;;5090591;28;20055;-65
2021/07/12 00:24:31;;;;;;;34.58;30.85;;;;;;;;;;5052389;28;20566;-65
2021/07/12 00:27:16;;;;;;;39.15;33.13;;;;;;;;;;5065932;28;20410;-65
2021/07/12 00:30:02;;;;;;;36.65;32.53;;;;;;;;;;5092588;28;20078;-65
2021/07/12 00:32:47;;;;;;;43.78;36.63;;;;;;;;;;5089908;28;20050;-65
2021/07/12 00:35:33;;;;;;;43.40;37.33;;;;;;;;;;5092297;28;20040;-65
2021/07/12 00:38:18;;;;;;;42.35;36.63;;;;;;;;;;5071567;28;20060;-65
2021/07/12 00:41:04;;;;;;;52.60;40.95;;;;;;;;;;5052041;28;20056;-65
2021/07/12 00:43:49;;;;;;;54.55;42.10;;;;;;;;;;5036751;28;20059;-65
2021/07/12 00:46:35;;;;;;;58.60;41.80;;;;;;;;;;5061799;28;20112;-65
2021/07/12 00:49:20;;;;;;;55.35;42.08;;;;;;;;;;5091498;28;20047;-65
2021/07/12 00:52:06;;;;;;;54.63;42.58;;;;;;;;;;5087656;28;20600;-65
2021/07/12 00:54:51;;;;;;;53.90;43.22;;;;;;;;;;5076661;28;20071;-65
2021/07/12 00:57:36;;;;;;;51.40;42.78;;;;;;;;;;5074164;28;20043;-65
2021/07/12 01:00:22;;;;;;;51.70;42.30;;;;;;;;;;5036620;28;20119;-65
2021/07/12 01:03:08;;;;;;;55.47;43.88;;;;;;;;;;5051781;28;20406;-65
2021/07/12 01:05:55;;;;;;;64.35;46.25;;;;;;;;;;5081348;28;20048;-66
2021/07/12 01:08:43;;;;;;;55.90;44.67;;;;;;;;;;5076791;28;20052;-66
2021/07/12 01:11:35;;;;;;;56.92;44.08;;;;;;;;;;5087796;28;20047;-65
2021/07/12 01:14:32;;;;;;;58.97;44.95;;;;;;;;;;5092197;28;20047;-65
2021/07/12 01:17:50;;;;;;;49.35;42.78;;;;;;;;;;5076638;28;20067;-65
2021/07/12 01:21:01;;;;;;;63.15;46.28;;;;;;;;;;5059984;28;20111;-65
2021/07/12 01:24:04;;;;;;;85.78;53.28;;;;;;;;;;5074068;28;20044;-65
2021/07/12 01:27:08;;;;;;;80.82;50.28;;;;;;;;;;5091915;28;20081;-65
2021/07/12 01:30:10;;;;;;;57.92;44.88;;;;;;;;;;5089512;28;20067;-65
2021/07/12 01:32:55;;;;;;;52.03;42.90;;;;;;;;;;5078071;28;20054;-65
2021/07/12 01:35:49;;;;;;;49.67;42.03;;;;;;;;;;5077744;28;20138;-65
2021/07/12 01:38:54;;;;;;;46.72;38.80;;;;;;;;;;5080426;28;20127;-65
2021/07/12 01:41:42;;;;;;;59.20;42.53;;;;;;;;;;5077508;28;20512;-65
2021/07/12 01:44:37;;;;;;;44.90;38.38;;;;;;;;;;5080273;28;20048;-65
2021/07/12 01:47:44;;;;;;;48.70;38.72;;;;;;;;;;5077625;28;20071;-65
2021/07/12 01:50:46;;;;;;;55.95;40.88;;;;;;;;;;5080069;28;20437;-65
2021/07/12 01:53:51;;;;;;;44.38;37.53;;;;;;;;;;5074122;28;20047;-65
2021/07/12 01:56:39;;;;;;;59.17;41.83;;;;;;;;;;5079778;28;20051;-65
2021/07/12 01:59:30;;;;;;;64.22;43.90;;;;;;;;;;5063322;28;20101;-65
2021/07/12 02:02:18;;;;;;;56.65;41.50;;;;;;;;;;5066076;28;20050;-65
2021/07/12 02:05:17;;;;;;;50.40;41.92;;;;;;;;;;5095025;28;20125;-66
2021/07/12 02:08:03;;;;;;;47.78;40.00;;;;;;;;;;5025854;28;20498;-65
2021/07/12 02:10:51;;;;;;;55.00;43.92;;;;;;;;;;5025799;28;20072;-65
2021/07/12 02:13:41;;;;;;;50.58;40.13;;;;;;;;;;5062082;28;20048;-66
2021/07/12 02:16:33;;;;;;;48.95;40.42;;;;;;;;;;5079651;28;20051;-65
2021/07/12 02:19:22;;;;;;;50.70;41.38;;;;;;;;;;5076918;28;20056;-65
2021/07/12 02:22:11;;;;;;;61.00;43.10;;;;;;;;;;5065979;28;20052;-65
2021/07/12 02:25:11;;;;;;;43.80;36.28;;;;;;;;;;5067189;28;20036;-65
2021/07/12 02:27:57;;;;;;;67.57;43.60;;;;;;;;;;5073237;28;20040;-65
2021/07/12 02:30:43;;;;;;;72.93;46.80;;;;;;;;;;5061667;28;20162;-66
2021/07/12 02:33:29;;;;;;;116.28;46.50;;;;;;;;;;5074316;28;20047;-66
2021/07/12 02:36:14;;;;;;;53.30;40.47;;;;;;;;;;5094590;28;20481;-66
2021/07/12 02:39:00;;;;;;;49.85;40.05;;;;;;;;;;5091447;28;20497;-65
2021/07/12 02:41:45;;;;;;;52.47;40.53;;;;;;;;;;5078652;28;20169;-65
2021/07/12 02:44:31;;;;;;;56.42;40.72;;;;;;;;;;5078535;28;20089;-65
2021/07/12 02:47:16;;;;;;;47.95;37.20;;;;;;;;;;5094248;28;20559;-65
2021/07/12 02:50:02;;;;;;;49.45;36.00;;;;;;;;;;5091435;28;20051;-66
2021/07/12 02:52:49;;;;;;;262.48;37.95;;;;;;;;;;5079033;28;20044;-65
2021/07/12 02:55:34;;;;;;;117.57;37.03;;;;;;;;;;5078586;28;20051;-65
2021/07/12 02:58:20;;;;;;;122.10;43.45;;;;;;;;;;5091028;28;20048;-65
2021/07/12 03:01:06;;;;;;;72.13;40.80;;;;;;;;;;5078295;28;20059;-65
2021/07/12 03:03:55;;;;;;;57.45;38.05;;;;;;;;;;5078648;28;20128;-65
2021/07/12 03:06:42;;;;;;;51.20;38.88;;;;;;;;;;5074650;28;20043;-65
2021/07/12 03:09:35;;;;;;;137.20;53.40;;;;;;;;;;5064379;28;20040;-65
2021/07/12 03:12:32;;;;;;;112.88;51.47;;;;;;;;;;5073622;28;20064;-65
2021/07/12 03:15:19;;;;;;;155.55;56.83;;;;;;;;;;5078532;28;20158;-65
2021/07/12 03:18:07;;;;;;;176.85;60.67;;;;;;;;;;5064748;28;20055;-65
2021/07/12 03:20:54;;;;;;;180.80;62.47;;;;;;;;;;5090133;28;20115;-65
2021/07/12 03:23:40;;;;;;;192.90;62.88;;;;;;;;;;5078234;28;20044;-65
2021/07/12 03:26:26;;;;;;;121.78;58.58;;;;;;;;;;5061092;28;20051;-65
2021/07/12 03:29:12;;;;;;;72.93;47.25;;;;;;;;;;5078323;28;20059;-65
2021/07/12 03:31:59;;;;;;;62.72;44.95;;;;;;;;;;5078170;28;20044;-65
2021/07/12 03:34:44;;;;;;;113.53;54.65;;;;;;;;;;5075181;28;20036;-65
2021/07/12 03:37:30;;;;;;;119.60;52.17;;;;;;;;;;5075359;28;20044;-65
2021/07/12 03:40:16;;;;;;;83.57;46.10;;;;;;;;;;5086217;28;20099;-65
2021/07/12 03:43:01;;;;;;;109.55;50.22;;;;;;;;;;5048699;28;20109;-65
2021/07/12 03:45:55;;;;;;;195.82;55.03;;;;;;;;;;5044036;28;20055;-66
2021/07/12 03:48:44;;;;;;;148.00;52.42;;;;;;;;;;5088502;28;20054;-65
2021/07/12 03:51:33;;;;;;;90.80;49.00;;;;;;;;;;5089705;28;20502;-65
2021/07/12 03:54:23;;;;;;;83.43;46.55;;;;;;;;;;5091808;22;20040;-64
2021/07/12 03:57:09;;;;;;;130.65;44.15;;;;;;;;;;5091880;28;20040;-63
2021/07/12 03:59:54;;;;;;;114.50;45.38;;;;;;;;;;5057176;28;20125;-64
2021/07/12 04:02:39;;;;;;;84.05;46.47;;;;;;;;;;5072367;28;20078;-63
2021/07/12 04:05:25;;;;;;;105.65;46.00;;;;;;;;;;5087500;28;20058;-63
2021/07/12 04:08:10;;;;;;;87.32;45.47;;;;;;;;;;5109506;28;20048;-63
2021/07/12 04:10:57;;;;;;;87.40;43.50;;;;;;;;;;5113037;28;20077;-63
2021/07/12 04:13:42;;;;;;;63.85;42.63;;;;;;;;;;5112806;28;20042;-63
2021/07/12 04:16:27;;;;;;;81.15;45.47;;;;;;;;;;5112843;28;20109;-63
2021/07/12 04:19:13;;;;;;;112.28;52.22;;;;;;;;;;5092432;28;20036;-63
2021/07/12 04:21:58;;;;;;;57.20;40.67;;;;;;;;;;5101346;28;20035;-64
2021/07/12 04:24:44;;;;;;;86.00;40.63;;;;;;;;;;5112523;28;20505;-63
2021/07/12 04:27:29;;;;;;;60.55;38.03;;;;;;;;;;5111696;28;20043;-63
2021/07/12 04:30:15;;;;;;;63.72;39.17;;;;;;;;;;5112415;28;20039;-63
2021/07/12 04:33:00;;;;;;;78.55;47.15;;;;;;;;;;5112532;28;20047;-63
2021/07/12 04:35:46;;;;;;;68.20;43.53;;;;;;;;;;5112590;28;20397;-64
2021/07/12 04:38:31;;;;;;;77.63;47.28;;;;;;;;;;5111558;28;20040;-63
2021/07/12 04:41:16;;;;;;;95.65;46.00;;;;;;;;;;5112160;28;20570;-63
2021/07/12 04:44:02;;;;;;;98.85;47.17;;;;;;;;;;5111805;28;20402;-63
2021/07/12 04:46:48;;;;;;;54.78;42.60;;;;;;;;;;5112501;28;20040;-66
2021/07/12 04:49:33;;;;;;;82.47;47.17;;;;;;;;;;5095422;28;20503;-63
2021/07/12 04:52:19;;;;;;;80.45;46.20;;;;;;;;;;5112388;28;20239;-63
2021/07/12 04:55:06;;;;;;;47.70;40.58;;;;;;;;;;5112250;28;20197;-64
2021/07/12 04:57:52;;;;;;;49.05;41.17;;;;;;;;;;5110248;28;20069;-64
2021/07/12 05:00:38;;;;;;;46.67;40.60;;;;;;;;;;5111964;28;20050;-64
2021/07/12 05:03:26;;;;;;;46.97;40.25;;;;;;;;;;5112168;28;20054;-64
2021/07/12 05:06:11;;;;;;;48.72;40.15;;;;;;;;;;5116561;28;20043;-64
2021/07/12 05:08:56;;;;;;;46.97;41.85;;;;;;;;;;5106304;28;20127;-64
2021/07/12 05:11:42;;;;;;;52.05;41.45;;;;;;;;;;5106516;28;20039;-63
2021/07/12 05:14:27;;;;;;;56.70;39.50;;;;;;;;;;5105075;28;20047;-64
2021/07/12 05:17:12;;;;;;;66.05;41.00;;;;;;;;;;5105165;28;20048;-63
2021/07/12 05:19:58;;;;;;;95.53;40.97;;;;;;;;;;5108095;28;20047;-63
2021/07/12 05:22:43;;;;;;;67.22;38.58;;;;;;;;;;5110663;28;20054;-63
2021/07/12 05:25:29;;;;;;;59.47;33.55;;;;;;;;;;5116111;28;20046;-63
2021/07/12 05:28:14;;;;;;;138.10;36.33;;;;;;;;;;5115221;28;20405;-63
2021/07/12 05:30:59;;;;;;;77.63;35.33;;;;;;;;;;5115869;28;20043;-63
2021/07/12 05:33:45;;;;;;;117.70;35.78;;;;;;;;;;5115947;28;20552;-63
2021/07/12 05:36:30;;;;;;;141.23;35.70;;;;;;;;;;5115024;28;20046;-63
2021/07/12 05:39:15;;;;;;;56.90;31.17;;;;;;;;;;5115903;28;20168;-63
2021/07/12 05:42:01;;;;;;;50.22;29.67;;;;;;;;;;5116007;28;20051;-63
2021/07/12 05:44:47;;;;;;;65.28;29.13;;;;;;;;;;5115782;28;20036;-63
2021/07/12 05:47:32;;;;;;;47.90;27.88;;;;;;;;;;5114863;28;20044;-63
2021/07/12 05:50:17;;;;;;;123.55;30.85;;;;;;;;;;5115709;28;20050;-63
2021/07/12 05:53:03;;;;;;;105.88;32.88;;;;;;;;;;5114600;28;20036;-63
2021/07/12 05:55:48;;;;;;;37.55;29.13;;;;;;;;;;5115428;28;20413;-63
2021/07/12 05:58:34;;;;;;;30.65;27.75;;;;;;;;;;5115104;28;20052;-63
2021/07/12 06:01:19;;;;;;;26.73;24.42;;;;;;;;;;5115276;28;20048;-63
2021/07/12 06:04:05;;;;;;;26.83;24.45;;;;;;;;;;5099867;28;20128;-63
2021/07/12 06:06:50;;;;;;;27.33;24.83;;;;;;;;;;5115490;28;20059;-63
2021/07/12 06:09:35;;;;;;;27.58;25.15;;;;;;;;;;5114062;28;20042;-63
2021/07/12 06:12:21;;;;;;;28.17;25.65;;;;;;;;;;5114246;28;20130;-63
2021/07/12 06:15:07;;;;;;;29.80;27.10;;;;;;;;;;5115094;28;20056;-63
2021/07/12 06:17:52;;;;;;;28.30;25.70;;;;;;;;;;5113981;28;20048;-63
2021/07/12 06:20:37;;;;;;;27.58;25.08;;;;;;;;;;5115178;28;20057;-63
2021/07/12 06:23:26;;;;;;;31.02;28.15;;;;;;;;;;5115167;28;20044;-63
2021/07/12 06:26:11;;;;;;;28.27;25.67;;;;;;;;;;5115201;28;20048;-63
2021/07/12 06:28:57;;;;;;;30.42;27.65;;;;;;;;;;5114231;28;20161;-63
2021/07/12 06:31:42;;;;;;;25.63;23.42;;;;;;;;;;5114665;28;20047;-63
2021/07/12 06:34:27;;;;;;;29.42;26.55;;;;;;;;;;5114983;28;20124;-62
2021/07/12 06:37:13;;;;;;;27.88;25.27;;;;;;;;;;5115020;28;20482;-63
2021/07/12 06:39:58;;;;;;;24.90;22.70;;;;;;;;;;5113631;28;20123;-63
2021/07/12 06:42:44;;;;;;;26.70;24.33;;;;;;;;;;5114743;28;20502;-62
2021/07/12 06:45:29;;;;;;;24.52;22.55;;;;;;;;;;5113628;28;20128;-63
2021/07/12 06:48:14;;;;;;;25.38;23.08;;;;;;;;;;5113043;28;20131;-63
2021/07/12 06:51:00;;;;;;;24.65;22.45;;;;;;;;;;5096395;28;20114;-63
2021/07/12 06:53:46;;;;;;;23.73;21.73;;;;;;;;;;5114316;28;20150;-62
2021/07/12 06:56:32;;;;;;;23.17;21.15;;;;;;;;;;5113605;28;20451;-63
2021/07/12 06:59:17;;;;;;;25.58;23.38;;;;;;;;;;5114382;28;20048;-63
2021/07/12 07:02:03;;;;;;;23.83;21.73;;;;;;;;;;5113528;28;20048;-63
2021/07/12 07:04:48;;;;;;;25.13;22.92;;;;;;;;;;5114278;28;20040;-63
2021/07/12 07:07:35;;;;;;;23.25;21.25;;;;;;;;;;5113468;28;20050;-62
2021/07/12 07:10:20;;;;;;;22.08;20.27;;;;;;;;;;5113963;28;20110;-63
2021/07/12 07:13:10;;;;;;;22.02;20.08;;;;;;;;;;5098614;28;20088;-63
2021/07/12 07:15:55;;;;;;;24.50;22.45;;;;;;;;;;5113456;28;20052;-63
2021/07/12 07:18:40;;;;;;;24.23;22.13;;;;;;;;;;5098815;28;20437;-63
2021/07/12 07:21:28;;;;;;;23.25;21.33;;;;;;;;;;5113886;28;20031;-63
2021/07/12 07:24:14;;;;;;;23.42;21.48;;;;;;;;;;5114126;28;20043;-63
2021/07/12 07:27:01;;;;;;;23.23;21.35;;;;;;;;;;5097304;28;20051;-63
2021/07/12 07:29:46;;;;;;;24.92;22.77;;;;;;;;;;5113365;28;20497;-63
2021/07/12 07:32:32;;;;;;;24.48;22.38;;;;;;;;;;5113653;28;20409;-63
2021/07/12 07:35:17;;;;;;;25.60;23.25;;;;;;;;;;5113669;28;20044;-63
2021/07/12 07:38:03;;;;;;;25.25;23.00;;;;;;;;;;5112990;28;20488;-63
2021/07/12 07:40:49;;;;;;;24.33;22.23;;;;;;;;;;5113620;28;20056;-62
2021/07/12 07:43:34;;;;;;;22.83;20.73;;;;;;;;;;5113728;28;20504;-63
2021/07/12 07:46:19;;;;;;;22.52;20.70;;;;;;;;;;5113823;28;20057;-63
2021/07/12 07:49:07;;;;;;;22.70;20.77;;;;;;;;;;5112687;28;20063;-63
2021/07/12 07:51:52;;;;;;;22.80;20.90;;;;;;;;;;5113350;28;20122;-63
2021/07/12 07:54:38;;;;;;;21.15;19.35;;;;;;;;;;5113171;28;20504;-63
2021/07/12 07:57:23;;;;;;;22.77;20.65;;;;;;;;;;5112683;28;20054;-63
2021/07/12 08:00:10;;;;;;;22.42;20.52;;;;;;;;;;5113135;28;20043;-63
2021/07/12 08:02:58;;;;;;;21.23;19.52;;;;;;;;;;5113277;28;20090;-63
2021/07/12 08:05:43;;;;;;;20.80;19.02;;;;;;;;;;5113593;28;20036;-63
2021/07/12 08:08:30;;;;;;;22.05;20.23;;;;;;;;;;5111952;28;20181;-63
2021/07/12 08:11:15;;;;;;;22.67;20.77;;;;;;;;;;5112870;28;20135;-64
2021/07/12 08:14:03;;;;;;;21.27;19.48;;;;;;;;;;5113138;28;20134;-63
2021/07/12 08:16:49;;;;;;;23.38;21.48;;;;;;;;;;5097672;28;20500;-63
2021/07/12 08:19:34;;;;;;;23.05;20.95;;;;;;;;;;5111020;28;20653;-63
2021/07/12 08:22:20;;;;;;;22.77;20.95;;;;;;;;;;5112883;28;20050;-63
2021/07/12 08:25:07;;;;;;;22.25;20.38;;;;;;;;;;5112916;28;20108;-63
2021/07/12 08:27:53;;;;;;;24.58;22.42;;;;;;;;;;5111966;28;20047;-63
2021/07/12 08:30:38;;;;;;;23.42;21.52;;;;;;;;;;5092167;28;20040;-63
2021/07/12 08:33:23;;;;;;;24.63;22.65;;;;;;;;;;5092493;28;20050;-63
2021/07/12 08:36:09;;;;;;;22.23;20.42;;;;;;;;;;5092179;28;20514;-63
2021/07/12 08:38:54;;;;;;;21.88;20.17;;;;;;;;;;5098036;28;20040;-63
2021/07/12 08:41:40;;;;;;;22.05;20.23;;;;;;;;;;5111638;28;20046;-64
2021/07/12 08:44:25;;;;;;;21.70;19.95;;;;;;;;;;5112538;28;20057;-63
2021/07/12 08:47:10;;;;;;;21.05;19.15;;;;;;;;;;5110927;28;20043;-63
2021/07/12 08:49:57;;;;;;;17.73;16.13;;;;;;;;;;5111257;28;20445;-63
2021/07/12 08:52:43;;;;;;;19.65;17.77;;;;;;;;;;5091976;28;20411;-63
2021/07/12 08:55:29;;;;;;;18.02;16.65;;;;;;;;;;5103693;28;20042;-63
2021/07/12 08:58:19;;;;;;;19.85;18.05;;;;;;;;;;5112200;28;20050;-63
2021/07/12 09:01:05;;;;;;;16.95;15.38;;;;;;;;;;5112174;28;20162;-63
2021/07/12 09:03:53;;;;;;;17.27;15.80;;;;;;;;;;5112287;28;20157;-64
2021/07/12 09:06:38;;;;;;;17.52;16.02;;;;;;;;;;5108140;28;20047;-64
2021/07/12 09:09:24;;;;;;;14.40;13.20;;;;;;;;;;5091928;28;20070;-64
2021/07/12 09:12:18;;;;;;;14.70;13.13;;;;;;;;;;5091842;28;20052;-63
2021/07/12 09:15:07;;;;;;;14.80;13.60;;;;;;;;;;5091827;28;20448;-63
2021/07/12 09:17:53;;;;;;;13.27;12.18;;;;;;;;;;5091923;28;20044;-63
2021/07/12 09:20:38;;;;;;;14.20;12.90;;;;;;;;;;5091684;28;20051;-63
2021/07/12 09:23:23;;;;;;;13.23;12.10;;;;;;;;;;5091915;28;20046;-63
2021/07/12 09:26:09;;;;;;;13.90;12.63;;;;;;;;;;5092142;28;20409;-63
2021/07/12 09:28:54;;;;;;;12.30;11.20;;;;;;;;;;5091715;28;20048;-63
2021/07/12 09:31:39;;;;;;;11.45;10.55;;;;;;;;;;5091699;28;20040;-63
2021/07/12 09:34:25;;;;;;;11.60;10.55;;;;;;;;;;5091756;28;20170;-63
2021/07/12 09:37:12;;;;;;;10.88;9.98;;;;;;;;;;5091981;28;20059;-64
2021/07/12 09:39:58;;;;;;;10.68;9.63;;;;;;;;;;5076541;28;20055;-64
2021/07/12 09:42:44;;;;;;;12.07;11.07;;;;;;;;;;5091929;28;20067;-63
2021/07/12 09:45:32;;;;;;;11.60;10.40;;;;;;;;;;5104158;28;20136;-64
2021/07/12 09:48:18;;;;;;;10.38;9.43;;;;;;;;;;5105168;28;20516;-64
2021/07/12 09:51:03;;;;;;;9.98;9.13;;;;;;;;;;5102449;28;20044;-64
2021/07/12 09:53:49;;;;;;;9.57;8.82;;;;;;;;;;5107620;28;20509;-64
2021/07/12 09:56:34;;;;;;;8.65;7.88;;;;;;;;;;5104709;28;20097;-64
2021/07/12 09:59:20;;;;;;;8.43;7.63;;;;;;;;;;5103542;28;20508;-64
2021/07/12 10:02:05;;;;;;;6.40;5.90;;;;;;;;;;5094976;28;20121;-65
2021/07/12 10:04:57;;;;;;;8.25;6.93;;;;;;;;;;5095029;28;20202;-65
2021/07/12 10:07:44;;;;;;;7.20;6.60;;;;;;;;;;5094673;28;20059;-65
2021/07/12 10:10:29;;;;;;;6.70;5.97;;;;;;;;;;5112081;28;20044;-65
2021/07/12 10:13:15;;;;;;;6.60;6.00;;;;;;;;;;5115450;28;20039;-64
2021/07/12 10:16:01;;;;;;;5.82;5.28;;;;;;;;;;5096714;28;20102;-64
2021/07/12 10:18:46;;;;;;;7.53;6.70;;;;;;;;;;5079723;28;20051;-64
2021/07/12 10:21:35;;;;;;;7.30;6.70;;;;;;;;;;5094561;28;20046;-64
2021/07/12 10:24:27;;;;;;;8.70;7.90;;;;;;;;;;5079552;28;20072;-64
2021/07/12 10:27:28;;;;;;;6.93;6.32;;;;;;;;;;5104566;28;20451;-64
2021/07/12 10:30:22;;;;;;;7.10;6.50;;;;;;;;;;5115027;28;20193;-64
2021/07/12 10:33:08;;;;;;;8.77;8.07;;;;;;;;;;5114896;28;20063;-64
2021/07/12 10:35:54;;;;;;;9.90;9.00;;;;;;;;;;5114871;28;20035;-64
2021/07/12 10:38:42;;;;;;;8.80;7.90;;;;;;;;;;5099593;28;20055;-64
2021/07/12 10:41:28;;;;;;;8.90;8.05;;;;;;;;;;5114885;28;20050;-63
2021/07/12 10:44:13;;;;;;;9.98;9.07;;;;;;;;;;5114876;28;20047;-64
2021/07/12 10:46:59;;;;;;;10.45;9.57;;;;;;;;;;5099657;28;20047;-64
2021/07/12 10:49:45;;;;;;;8.88;8.07;;;;;;;;;;5114417;28;20045;-64
2021/07/12 10:52:46;;;;;;;9.02;8.15;;;;;;;;;;5114803;28;20097;-63
2021/07/12 10:55:32;;;;;;;8.88;7.65;;;;;;;;;;5114454;28;20050;-64
2021/07/12 10:58:20;;;;;;;8.48;7.72;;;;;;;;;;5114485;28;20054;-64
2021/07/12 11:01:06;;;;;;;8.18;7.43;;;;;;;;;;5114161;28;20039;-64
2021/07/12 11:03:51;;;;;;;8.00;7.32;;;;;;;;;;5114058;28;20136;-64
2021/07/12 11:06:52;;;;;;;9.77;8.98;;;;;;;;;;5114279;28;20125;-63
2021/07/12 11:09:53;;;;;;;9.05;8.25;;;;;;;;;;5114240;28;20081;-63
2021/07/12 11:12:42;;;;;;;14.57;10.65;;;;;;;;;;5114186;28;20485;-64
2021/07/12 11:15:28;;;;;;;9.95;8.85;;;;;;;;;;5114096;28;20055;-63
2021/07/12 11:18:34;;;;;;;10.10;9.10;;;;;;;;;;5114177;28;20043;-63
2021/07/12 11:21:32;;;;;;;9.05;8.20;;;;;;;;;;5113860;28;20500;-64
2021/07/12 11:24:24;;;;;;;10.05;8.98;;;;;;;;;;5114088;28;20052;-63
2021/07/12 11:27:10;;;;;;;10.38;9.38;;;;;;;;;;5098633;28;20427;-63
2021/07/12 11:29:55;;;;;;;10.02;9.15;;;;;;;;;;5098459;28;20043;-63
2021/07/12 11:32:40;;;;;;;10.18;9.27;;;;;;;;;;5113888;28;20040;-63
2021/07/12 11:35:25;;;;;;;8.98;8.27;;;;;;;;;;5113671;28;20045;-63
2021/07/12 11:38:11;;;;;;;10.80;9.30;;;;;;;;;;5113917;28;20044;-63
2021/07/12 11:41:09;;;;;;;10.38;9.48;;;;;;;;;;5113420;28;20047;-64
2021/07/12 11:44:09;;;;;;;11.38;10.25;;;;;;;;;;5113507;28;20044;-64
2021/07/12 11:46:54;;;;;;;11.35;10.32;;;;;;;;;;5113777;28;20048;-63
2021/07/12 11:49:40;;;;;;;10.25;9.35;;;;;;;;;;5097917;28;20047;-64
2021/07/12 11:52:25;;;;;;;11.20;10.20;;;;;;;;;;5113351;28;20121;-64
2021/07/12 11:55:11;;;;;;;11.25;10.25;;;;;;;;;;5113201;28;20619;-63
2021/07/12 11:57:58;;;;;;;11.80;10.70;;;;;;;;;;5113382;28;20050;-63
2021/07/12 12:00:43;;;;;;;11.18;10.02;;;;;;;;;;5097622;28;20046;-64
2021/07/12 12:03:29;;;;;;;10.55;9.65;;;;;;;;;;5107930;28;20509;-63
2021/07/12 12:06:23;;;;;;;10.18;9.18;;;;;;;;;;5106298;28;20108;-64
2021/07/12 12:09:09;;;;;;;9.48;8.55;;;;;;;;;;5103206;28;20046;-63
2021/07/12 12:11:54;;;;;;;10.32;9.43;;;;;;;;;;5103453;28;20035;-63
2021/07/12 12:14:39;;;;;;;10.43;9.52;;;;;;;;;;5087458;28;20268;-63
2021/07/12 12:17:25;;;;;;;10.38;9.48;;;;;;;;;;5088426;28;20486;-63
2021/07/12 12:20:12;;;;;;;10.68;9.57;;;;;;;;;;5103131;28;20039;-63
2021/07/12 12:23:00;;;;;;;10.52;9.63;;;;;;;;;;5103275;28;20062;-63
2021/07/12 12:25:46;;;;;;;10.63;9.68;;;;;;;;;;5103388;28;20051;-63
2021/07/12 12:28:45;;;;;;;9.82;9.00;;;;;;;;;;5087891;28;20046;-63
2021/07/12 12:31:31;;;;;;;9.10;8.40;;;;;;;;;;5102860;28;20043;-64
2021/07/12 12:34:18;;;;;;;9.55;8.75;;;;;;;;;;5102721;28;20092;-64
2021/07/12 12:37:04;;;;;;;8.93;8.20;;;;;;;;;;5103204;28;20048;-64
2021/07/12 12:39:50;;;;;;;7.65;6.90;;;;;;;;;;5102718;28;20043;-63
2021/07/12 12:42:35;;;;;;;8.18;7.57;;;;;;;;;;5104857;28;20126;-64
2021/07/12 12:45:28;;;;;;;7.20;6.70;;;;;;;;;;5102776;28;20047;-64
2021/07/12 12:48:13;;;;;;;8.23;7.43;;;;;;;;;;5101611;28;20101;-64
2021/07/12 12:50:59;;;;;;;7.78;7.07;;;;;;;;;;5087939;28;20035;-64
2021/07/12 12:53:44;;;;;;;7.85;7.05;;;;;;;;;;5102048;28;20040;-64
2021/07/12 12:56:30;;;;;;;7.40;6.70;;;;;;;;;;5104543;28;20490;-64
2021/07/12 12:59:16;;;;;;;9.80;8.82;;;;;;;;;;5102878;28;20116;-64
2021/07/12 13:02:02;;;;;;;9.68;8.52;;;;;;;;;;5110708;28;20044;-64
2021/07/12 13:04:48;;;;;;;11.07;9.45;;;;;;;;;;5112068;28;20051;-64
2021/07/12 13:07:39;;;;;;;10.05;9.15;;;;;;;;;;5112242;28;20044;-64
2021/07/12 13:10:28;;;;;;;9.70;8.93;;;;;;;;;;5096916;28;20666;-64
2021/07/12 13:13:15;;;;;;;11.10;10.00;;;;;;;;;;5112155;28;20047;-64
2021/07/12 13:16:20;;;;;;;9.93;9.13;;;;;;;;;;5112412;28;20156;-64
2021/07/12 13:19:06;;;;;;;9.48;8.60;;;;;;;;;;5112473;28;20062;-64
2021/07/12 13:21:53;;;;;;;9.82;9.02;;;;;;;;;;5112117;28;20138;-64
2021/07/12 13:24:42;;;;;;;10.20;9.00;;;;;;;;;;5112117;28;20047;-64
2021/07/12 13:27:37;;;;;;;9.80;9.00;;;;;;;;;;5116352;28;20046;-64
2021/07/12 13:30:25;;;;;;;9.95;9.05;;;;;;;;;;5115966;28;20493;-64
2021/07/12 13:33:11;;;;;;;10.38;9.43;;;;;;;;;;5116002;28;20047;-64
2021/07/12 13:35:57;;;;;;;9.98;9.10;;;;;;;;;;5116046;28;20046;-64
2021/07/12 13:38:42;;;;;;;10.30;9.40;;;;;;;;;;5115960;28;20181;-64
2021/07/12 13:41:28;;;;;;;11.27;9.35;;;;;;;;;;5115943;28;20050;-64
2021/07/12 13:44:13;;;;;;;10.55;9.75;;;;;;;;;;5100625;28;20044;-63
2021/07/12 13:46:58;;;;;;;10.27;9.35;;;;;;;;;;5115769;28;20050;-64
2021/07/12 13:49:44;;;;;;;11.43;10.50;;;;;;;;;;5115746;28;20044;-64
2021/07/12 13:52:29;;;;;;;10.27;9.48;;;;;;;;;;5115740;28;20520;-64
2021/07/12 13:55:15;;;;;;;11.07;9.98;;;;;;;;;;5115447;28;20417;-64
2021/07/12 13:58:02;;;;;;;11.30;10.30;;;;;;;;;;5115856;28;20047;-64
2021/07/12 14:00:47;;;;;;;10.60;9.18;;;;;;;;;;5115361;28;20085;-64
2021/07/12 14:03:32;;;;;;;10.02;9.13;;;;;;;;;;5115396;28;20516;-64
2021/07/12 14:06:18;;;;;;;10.98;10.07;;;;;;;;;;5115659;28;20043;-64
2021/07/12 14:09:03;;;;;;;11.60;10.65;;;;;;;;;;5115597;28;20059;-64
2021/07/12 14:11:48;;;;;;;11.55;10.55;;;;;;;;;;5115303;28;20130;-64
2021/07/12 14:14:34;;;;;;;11.68;10.68;;;;;;;;;;5115434;28;20078;-64
2021/07/12 14:17:19;;;;;;;9.95;9.07;;;;;;;;;;5115294;28;20040;-64
2021/07/12 14:20:05;;;;;;;10.90;10.02;;;;;;;;;;5115044;28;20040;-63
2021/07/12 14:22:51;;;;;;;13.15;9.70;;;;;;;;;;5115385;28;20044;-63
2021/07/12 14:25:37;;;;;;;13.27;12.13;;;;;;;;;;5115159;28;20055;-63
2021/07/12 14:28:22;;;;;;;12.48;11.27;;;;;;;;;;5115122;28;20111;-63
2021/07/12 14:31:07;;;;;;;12.13;11.13;;;;;;;;;;5114944;28;20145;-63
2021/07/12 14:33:53;;;;;;;13.32;11.65;;;;;;;;;;5114973;28;20066;-63
2021/07/12 14:36:38;;;;;;;11.60;10.50;;;;;;;;;;5114404;28;20137;-64
2021/07/12 14:39:24;;;;;;;14.40;12.05;;;;;;;;;;5105368;28;20039;-64
2021/07/12 14:42:09;;;;;;;12.70;11.60;;;;;;;;;;5105431;28;20555;-64
2021/07/12 14:44:54;;;;;;;11.80;10.80;;;;;;;;;;5107190;28;20464;-64
2021/07/12 14:47:40;;;;;;;11.27;10.27;;;;;;;;;;5105078;28;20054;-64
2021/07/12 14:50:25;;;;;;;12.93;11.70;;;;;;;;;;5094380;28;20054;-64
2021/07/12 14:53:11;;;;;;;11.02;10.10;;;;;;;;;;5098503;28;20051;-64
2021/07/12 14:55:56;;;;;;;11.02;10.13;;;;;;;;;;5110893;28;20062;-64
2021/07/12 14:58:41;;;;;;;11.35;10.25;;;;;;;;;;5114224;28;20040;-64
2021/07/12 15:01:26;;;;;;;11.50;10.40;;;;;;;;;;5113672;28;20520;-64
2021/07/12 15:04:12;;;;;;;12.38;11.38;;;;;;;;;;5113735;28;20051;-64
2021/07/12 15:06:57;;;;;;;14.93;13.63;;;;;;;;;;5099102;28;20517;-64
2021/07/12 15:09:42;;;;;;;16.65;15.25;;;;;;;;;;5113961;28;20517;-64
2021/07/12 15:12:28;;;;;;;16.88;15.48;;;;;;;;;;5114127;28;20047;-64
2021/07/12 15:15:13;;;;;;;16.42;15.02;;;;;;;;;;5114007;28;20107;-64
2021/07/12 15:17:58;;;;;;;17.73;16.17;;;;;;;;;;5114213;28;20058;-64
2021/07/12 15:20:44;;;;;;;18.40;16.67;;;;;;;;;;5113711;28;20059;-64
2021/07/12 15:23:30;;;;;;;18.73;17.05;;;;;;;;;;5113964;28;20543;-64
2021/07/12 15:26:15;;;;;;;18.63;16.92;;;;;;;;;;5113794;28;20046;-64
2021/07/12 15:29:00;;;;;;;19.38;17.52;;;;;;;;;;5113702;28;20040;-64
2021/07/12 15:31:46;;;;;;;18.30;16.70;;;;;;;;;;5113896;28;20054;-64
2021/07/12 15:34:31;;;;;;;18.40;16.63;;;;;;;;;;5113495;28;20040;-64
2021/07/12 15:37:16;;;;;;;16.73;15.23;;;;;;;;;;5113669;28;20047;-64
2021/07/12 15:40:01;;;;;;;16.50;15.00;;;;;;;;;;5098491;28;20158;-64
2021/07/12 15:42:46;;;;;;;20.33;17.65;;;;;;;;;;5113871;28;20168;-64
2021/07/12 15:45:32;;;;;;;16.70;15.20;;;;;;;;;;5095039;28;20063;-64
2021/07/12 15:48:17;;;;;;;16.80;15.25;;;;;;;;;;5092200;28;20121;-63
2021/07/12 15:51:03;;;;;;;14.27;13.07;;;;;;;;;;5092929;28;20059;-64
2021/07/12 15:53:48;;;;;;;11.30;10.38;;;;;;;;;;5092806;28;20249;-64
2021/07/12 15:56:34;;;;;;;9.85;9.05;;;;;;;;;;5093225;28;20044;-64
2021/07/12 15:59:19;;;;;;;7.43;6.82;;;;;;;;;;5092861;28;20098;-64
2021/07/12 16:02:07;;;;;;;8.75;8.02;;;;;;;;;;5092918;28;20049;-64
2021/07/12 16:04:53;;;;;;;8.95;8.02;;;;;;;;;;5112466;28;20146;-64
2021/07/12 16:07:38;;;;;;;7.63;7.03;;;;;;;;;;5113094;28;20177;-64
2021/07/12 16:10:24;;;;;;;7.95;7.15;;;;;;;;;;5112889;28;20493;-64
2021/07/12 16:13:09;;;;;;;9.55;7.45;;;;;;;;;;5113078;28;20052;-64
2021/07/12 16:15:55;;;;;;;8.48;7.80;;;;;;;;;;5112638;28;20413;-64
2021/07/12 16:18:40;;;;;;;9.50;8.70;;;;;;;;;;5112961;28;20040;-64